Time;durP1;ratioP1;P1;durP2;ratioP2;P2;SDS_P1;SDS_P2;PMS_P1;PMS_P2;Temp;Humidity;BMP_temperature;BMP_pressure;BME280_temperature;BME280_humidity;BME280_pressure;Samples;Min_cycle;Max_cycle;Signal;HPM_P1;HPM_P2
2022/10/19 00:00:21;;;;;;;18.30;14.45;;;14.30;99.90;;;;;;5067771;28;20240;-74
2022/10/19 00:03:09;;;;;;;19.75;15.57;;;14.20;99.90;;;;;;5063709;28;20235;-74
2022/10/19 00:05:58;;;;;;;21.42;13.50;;;14.10;99.90;;;;;;5072938;28;20909;-75
2022/10/19 00:08:48;;;;;;;20.80;13.85;;;14.00;99.90;;;;;;5068334;28;20227;-75
2022/10/19 00:11:39;;;;;;;16.95;12.75;;;14.10;99.90;;;;;;5074092;28;20346;-75
2022/10/19 00:14:28;;;;;;;18.10;12.93;;;14.10;99.90;;;;;;5075409;28;20552;-76
2022/10/19 00:17:17;;;;;;;17.63;12.63;;;14.00;99.90;;;;;;5065998;28;20218;-76
2022/10/19 00:20:07;;;;;;;17.05;12.80;;;14.00;99.90;;;;;;5070715;28;20227;-74
2022/10/19 00:22:56;;;;;;;17.63;12.75;;;14.00;99.90;;;;;;5081050;28;20218;-75
2022/10/19 00:25:56;;;;;;;16.73;11.88;;;14.10;99.90;;;;;;5077657;28;20243;-76
2022/10/19 00:28:45;;;;;;;16.55;11.07;;;14.10;99.90;;;;;;5075582;28;20706;-76
2022/10/19 00:31:35;;;;;;;18.27;11.52;;;14.00;99.90;;;;;;5079923;28;20243;-76
2022/10/19 00:34:23;;;;;;;14.18;11.48;;;14.00;99.90;;;;;;5074336;28;20231;-76
2022/10/19 00:37:12;;;;;;;17.13;10.60;;;13.90;99.90;;;;;;5060689;28;20220;-76
2022/10/19 00:40:01;;;;;;;14.77;10.85;;;13.90;99.90;;;;;;5071891;28;20243;-76
2022/10/19 00:42:55;;;;;;;14.48;11.07;;;13.70;99.90;;;;;;5074099;28;20676;-76
2022/10/19 00:45:45;;;;;;;15.77;10.75;;;13.70;99.90;;;;;;5071452;28;20265;-75
2022/10/19 00:48:34;;;;;;;16.55;11.00;;;13.70;99.90;;;;;;5075206;28;20216;-76
2022/10/19 00:51:25;;;;;;;21.42;10.70;;;13.80;99.90;;;;;;5074819;28;20571;-75
2022/10/19 00:54:15;;;;;;;15.85;10.45;;;13.70;99.90;;;;;;5081123;28;20722;-75
2022/10/19 00:57:05;;;;;;;16.08;10.05;;;13.70;99.90;;;;;;5070007;28;20690;-75
2022/10/19 00:59:56;;;;;;;17.98;10.35;;;13.70;99.90;;;;;;5071186;28;20346;-77
2022/10/19 01:02:45;;;;;;;12.07;10.07;;;13.60;99.90;;;;;;5061752;28;20337;-75
2022/10/19 01:05:35;;;;;;;20.23;12.35;;;13.60;99.90;;;;;;5063402;28;20239;-77
2022/10/19 01:08:24;;;;;;;19.83;13.52;;;13.50;99.90;;;;;;5055517;28;20228;-76
2022/10/19 01:11:34;;;;;;;20.95;13.30;;;13.30;99.90;;;;;;5060089;28;20245;-76
2022/10/19 01:14:33;;;;;;;21.63;13.82;;;13.40;99.90;;;;;;5063514;28;20223;-77
2022/10/19 01:17:34;;;;;;;18.63;14.02;;;13.40;99.90;;;;;;5061303;28;20963;-76
2022/10/19 01:20:52;;;;;;;19.77;13.55;;;13.40;99.90;;;;;;5077666;28;20232;-76
2022/10/19 01:24:22;;;;;;;17.83;13.27;;;13.50;99.90;;;;;;5055471;28;20598;-76
2022/10/19 01:27:35;;;;;;;16.83;12.98;;;13.50;99.90;;;;;;5060492;28;20233;-76
2022/10/19 01:30:41;;;;;;;22.48;13.35;;;13.50;99.90;;;;;;5060687;28;20224;-77
2022/10/19 01:33:41;;;;;;;19.48;13.90;;;13.50;99.90;;;;;;5065876;28;20223;-77
2022/10/19 01:36:41;;;;;;;20.77;14.50;;;13.50;99.90;;;;;;5058506;28;20345;-77
2022/10/19 01:39:39;;;;;;;24.13;14.43;;;13.50;99.90;;;;;;5057096;28;20219;-76
2022/10/19 01:42:32;;;;;;;20.27;13.40;;;13.50;99.90;;;;;;5069317;28;20224;-77
2022/10/19 01:45:26;;;;;;;18.40;12.98;;;13.60;99.90;;;;;;5068341;28;20223;-75
2022/10/19 01:48:21;;;;;;;23.92;12.93;;;13.50;99.90;;;;;;5074737;28;20304;-77
2022/10/19 01:51:16;;;;;;;23.63;13.00;;;13.50;99.90;;;;;;5071277;28;20224;-77
2022/10/19 01:54:10;;;;;;;21.52;11.40;;;13.50;99.90;;;;;;5061650;28;20228;-76
2022/10/19 01:57:02;;;;;;;18.23;10.73;;;13.50;99.90;;;;;;5060371;28;21013;-77
2022/10/19 01:59:52;;;;;;;22.00;10.63;;;13.40;99.90;;;;;;5071856;28;20236;-77
2022/10/19 02:02:45;;;;;;;22.45;10.95;;;13.40;99.90;;;;;;5067361;28;20250;-76
2022/10/19 02:05:38;;;;;;;18.70;11.00;;;13.40;99.90;;;;;;5076363;28;20227;-77
2022/10/19 02:08:30;;;;;;;17.77;10.23;;;13.40;99.90;;;;;;5073866;28;20714;-74
2022/10/19 02:11:20;;;;;;;18.83;10.98;;;13.50;99.90;;;;;;5058190;28;20215;-75
2022/10/19 02:14:13;;;;;;;20.40;10.98;;;13.40;99.90;;;;;;5073932;28;20235;-77
2022/10/19 02:17:05;;;;;;;18.45;11.48;;;13.40;99.90;;;;;;5072687;28;20583;-76
2022/10/19 02:19:55;;;;;;;19.77;10.82;;;13.40;99.90;;;;;;5058292;28;20216;-75
2022/10/19 02:22:45;;;;;;;23.38;11.77;;;13.30;99.90;;;;;;5062843;28;20227;-78
2022/10/19 02:25:35;;;;;;;19.40;11.27;;;13.30;99.90;;;;;;5068897;28;20312;-78
2022/10/19 02:28:28;;;;;;;27.95;13.20;;;13.20;99.90;;;;;;5074096;28;20392;-81
2022/10/19 02:31:20;;;;;;;20.90;12.45;;;13.30;99.90;;;;;;5068090;28;20300;-79
2022/10/19 02:34:10;;;;;;;18.55;12.18;;;13.30;99.90;;;;;;5062939;28;20227;-78
2022/10/19 02:36:59;;;;;;;24.42;13.02;;;13.20;99.90;;;;;;5053405;28;20228;-78
2022/10/19 02:39:49;;;;;;;21.13;12.65;;;13.20;99.90;;;;;;5076703;28;20295;-78
2022/10/19 02:42:42;;;;;;;17.17;12.25;;;13.20;99.90;;;;;;5081526;28;20234;-79
2022/10/19 02:45:35;;;;;;;20.00;12.40;;;13.30;99.90;;;;;;5067021;28;20238;-80
2022/10/19 02:48:26;;;;;;;19.40;12.85;;;13.30;99.90;;;;;;5070939;28;20220;-79
2022/10/19 02:51:28;;;;;;;24.92;12.77;;;13.20;99.90;;;;;;5077118;28;20211;-78
2022/10/19 02:54:17;;;;;;;22.73;12.27;;;13.20;99.90;;;;;;5060726;28;20227;-78
2022/10/19 02:57:16;;;;;;;19.35;12.07;;;13.20;99.90;;;;;;5058298;28;20228;-78
2022/10/19 03:00:06;;;;;;;19.80;11.38;;;13.10;99.90;;;;;;5081063;28;20223;-78
2022/10/19 03:02:55;;;;;;;17.35;11.60;;;13.00;99.90;;;;;;5085604;28;20714;-79
2022/10/19 03:05:43;;;;;;;19.75;12.27;;;13.00;99.90;;;;;;5078488;28;20242;-79
2022/10/19 03:08:32;;;;;;;23.65;12.73;;;12.90;99.90;;;;;;5061773;28;20761;-78
2022/10/19 03:11:21;;;;;;;23.35;13.63;;;12.90;99.90;;;;;;5075483;28;25821;-79
2022/10/19 03:14:11;;;;;;;18.55;12.90;;;12.90;99.90;;;;;;5084623;28;20215;-77
2022/10/19 03:17:00;;;;;;;24.23;13.88;;;12.90;99.90;;;;;;5068588;28;20220;-76
2022/10/19 03:19:49;;;;;;;20.05;12.68;;;12.80;99.90;;;;;;5079966;28;20212;-77
2022/10/19 03:22:38;;;;;;;21.88;13.63;;;12.80;99.90;;;;;;5083684;28;20224;-78
2022/10/19 03:25:27;;;;;;;19.92;12.70;;;12.90;99.90;;;;;;5075926;28;20223;-78
2022/10/19 03:28:16;;;;;;;21.55;13.18;;;12.80;99.90;;;;;;5063484;28;20375;-77
2022/10/19 03:31:06;;;;;;;24.23;13.05;;;12.80;99.90;;;;;;5052080;28;20311;-78
2022/10/19 03:33:55;;;;;;;24.55;14.73;;;12.80;99.90;;;;;;5052160;28;20231;-78
2022/10/19 03:36:44;;;;;;;19.20;12.63;;;12.80;99.90;;;;;;5068396;28;20235;-78
2022/10/19 03:39:33;;;;;;;21.80;12.70;;;12.80;99.90;;;;;;5048456;28;20750;-78
2022/10/19 03:42:21;;;;;;;19.58;13.25;;;12.80;99.90;;;;;;5058210;28;20232;-77
2022/10/19 03:45:11;;;;;;;22.58;12.27;;;12.70;99.90;;;;;;5059219;28;20220;-78
2022/10/19 03:48:01;;;;;;;21.98;12.25;;;12.70;99.90;;;;;;5058432;28;20228;-78
2022/10/19 03:50:58;;;;;;;19.20;11.63;;;12.70;99.90;;;;;;5046003;28;20706;-78
2022/10/19 03:53:47;;;;;;;19.02;12.30;;;12.80;99.90;;;;;;5064997;28;20671;-79
2022/10/19 03:56:36;;;;;;;19.60;11.93;;;12.70;99.90;;;;;;5061197;28;20239;-77
2022/10/19 03:59:25;;;;;;;19.60;11.65;;;12.70;99.90;;;;;;5050710;28;20243;-79
2022/10/19 04:02:13;;;;;;;17.40;11.90;;;12.80;99.90;;;;;;5058085;28;20216;-79
2022/10/19 04:05:04;;;;;;;22.77;11.63;;;12.70;99.90;;;;;;5069247;28;20232;-77
2022/10/19 04:07:53;;;;;;;19.92;11.10;;;12.70;99.90;;;;;;5046066;28;20216;-77
2022/10/19 04:10:41;;;;;;;15.38;11.02;;;12.90;99.90;;;;;;5055232;28;20227;-76
2022/10/19 04:13:30;;;;;;;17.38;11.35;;;12.80;99.90;;;;;;5043023;28;20304;-76
2022/10/19 04:16:20;;;;;;;19.23;10.95;;;12.80;99.90;;;;;;5057432;28;20228;-77
2022/10/19 04:19:14;;;;;;;18.80;11.00;;;12.90;99.90;;;;;;5059538;28;20220;-77
2022/10/19 04:22:04;;;;;;;19.88;10.75;;;12.90;99.90;;;;;;5056994;28;20240;-76
2022/10/19 04:24:54;;;;;;;18.50;11.50;;;12.80;99.90;;;;;;5059983;28;20220;-76
2022/10/19 04:27:42;;;;;;;16.75;9.75;;;12.80;99.90;;;;;;5060591;28;20220;-77
2022/10/19 04:30:31;;;;;;;19.67;11.10;;;12.80;99.90;;;;;;5076960;28;20569;-76
2022/10/19 04:33:20;;;;;;;19.70;10.32;;;12.80;99.90;;;;;;5079366;28;21246;-74
2022/10/19 04:36:11;;;;;;;17.33;9.68;;;12.80;99.90;;;;;;5072928;28;20349;-77
2022/10/19 04:39:01;;;;;;;18.25;9.90;;;12.80;99.90;;;;;;5061550;28;20220;-74
2022/10/19 04:41:49;;;;;;;15.88;9.38;;;12.80;99.90;;;;;;5064220;28;20598;-77
2022/10/19 04:44:38;;;;;;;16.70;9.15;;;12.80;99.90;;;;;;5059722;28;20231;-79
2022/10/19 04:47:29;;;;;;;17.73;9.73;;;12.80;99.90;;;;;;5079173;28;20227;-78
2022/10/19 04:50:18;;;;;;;21.10;9.77;;;12.80;99.90;;;;;;5078418;28;20228;-79
2022/10/19 04:53:06;;;;;;;16.35;9.00;;;12.80;99.90;;;;;;5072521;28;20216;-77
2022/10/19 04:55:56;;;;;;;13.90;9.23;;;12.90;99.90;;;;;;5066435;28;20227;-76
2022/10/19 04:58:46;;;;;;;14.65;9.30;;;12.80;99.90;;;;;;5076581;28;20216;-75
2022/10/19 05:01:35;;;;;;;14.52;9.43;;;12.80;99.90;;;;;;5068797;28;20224;-77
2022/10/19 05:04:24;;;;;;;15.20;8.65;;;12.90;99.90;;;;;;5080659;28;20237;-78
2022/10/19 05:07:13;;;;;;;15.90;8.88;;;12.90;99.90;;;;;;5079200;28;20219;-79
2022/10/19 05:10:01;;;;;;;21.02;9.50;;;12.90;99.90;;;;;;5054293;28;20232;-78
2022/10/19 05:12:52;;;;;;;15.27;9.02;;;12.90;99.90;;;;;;5078617;28;20238;-79
2022/10/19 05:15:40;;;;;;;18.05;9.27;;;12.70;99.90;;;;;;5071686;28;20289;-79
2022/10/19 05:18:29;;;;;;;13.98;8.73;;;12.80;99.90;;;;;;5080252;28;20273;-78
2022/10/19 05:21:20;;;;;;;20.23;8.20;;;12.80;99.90;;;;;;5068243;28;20220;-79
2022/10/19 05:24:13;;;;;;;18.23;8.77;;;12.80;99.90;;;;;;5074236;28;20623;-80
2022/10/19 05:27:01;;;;;;;15.70;8.68;;;12.80;99.90;;;;;;5070142;28;20262;-80
2022/10/19 05:29:51;;;;;;;12.85;7.85;;;12.80;99.90;;;;;;5067528;28;20239;-78
2022/10/19 05:32:40;;;;;;;17.70;10.82;;;12.80;99.90;;;;;;5082064;28;20218;-77
2022/10/19 05:35:29;;;;;;;16.20;8.40;;;12.70;99.90;;;;;;5071682;28;20227;-78
2022/10/19 05:38:18;;;;;;;17.33;8.23;;;12.80;99.90;;;;;;5073339;28;20223;-79
2022/10/19 05:41:06;;;;;;;13.93;8.27;;;12.80;99.90;;;;;;5057348;28;20234;-79
2022/10/19 05:43:57;;;;;;;14.25;8.07;;;12.80;99.90;;;;;;5060831;28;20220;-80
2022/10/19 05:46:48;;;;;;;14.25;7.53;;;12.90;99.90;;;;;;5057581;28;20211;-81
2022/10/19 05:49:37;;;;;;;14.25;7.40;;;12.90;99.90;;;;;;5075713;28;20247;-80
2022/10/19 05:52:26;;;;;;;16.58;7.90;;;12.90;99.90;;;;;;5060188;28;20216;-83
2022/10/19 05:55:14;;;;;;;15.68;7.63;;;12.90;99.90;;;;;;5057114;28;20228;-79
2022/10/19 05:58:03;;;;;;;15.30;9.40;;;12.80;99.90;;;;;;5080417;28;20591;-78
2022/10/19 06:00:53;;;;;;;14.18;7.32;;;12.90;99.90;;;;;;5076045;28;20223;-77
2022/10/19 06:03:43;;;;;;;15.23;7.72;;;12.90;99.90;;;;;;5061852;28;20236;-78
2022/10/19 06:06:32;;;;;;;14.70;8.50;;;12.80;99.90;;;;;;5079825;28;20235;-89
2022/10/19 06:09:21;;;;;;;16.92;7.22;;;12.80;99.90;;;;;;5058960;28;20223;-79
2022/10/19 06:12:09;;;;;;;10.75;6.53;;;13.00;99.90;;;;;;5067214;28;20227;-76
2022/10/19 06:14:58;;;;;;;20.10;6.70;;;12.90;99.90;;;;;;5060913;28;20340;-77
2022/10/19 06:17:47;;;;;;;11.82;6.38;;;13.00;99.90;;;;;;5075157;28;20219;-77
2022/10/19 06:20:39;;;;;;;18.05;6.60;;;13.00;99.90;;;;;;5068240;28;20213;-76
2022/10/19 06:23:27;;;;;;;13.45;6.53;;;12.90;99.90;;;;;;5073422;28;20231;-78
2022/10/19 06:26:16;;;;;;;11.40;6.55;;;12.90;99.90;;;;;;5057374;28;20227;-75
2022/10/19 06:29:05;;;;;;;12.73;5.72;;;13.00;99.90;;;;;;5068138;28;20227;-76
2022/10/19 06:31:55;;;;;;;13.63;6.38;;;13.10;99.90;;;;;;5079396;28;20351;-77
2022/10/19 06:34:43;;;;;;;10.65;5.93;;;13.00;99.90;;;;;;5073348;28;20590;-78
2022/10/19 06:37:35;;;;;;;12.38;6.55;;;13.00;99.90;;;;;;5060821;28;20350;-76
2022/10/19 06:40:24;;;;;;;15.38;6.40;;;12.90;99.90;;;;;;5077158;28;20234;-76
2022/10/19 06:43:13;;;;;;;18.13;6.35;;;12.90;99.90;;;;;;5073058;28;20721;-76
2022/10/19 06:46:06;;;;;;;15.77;6.22;;;12.90;99.90;;;;;;5078568;28;20585;-76
2022/10/19 06:48:58;;;;;;;14.80;7.20;;;13.00;99.90;;;;;;5067500;28;20224;-75
2022/10/19 06:51:47;;;;;;;11.60;6.25;;;12.90;99.90;;;;;;5060875;28;20220;-77
2022/10/19 06:54:37;;;;;;;12.57;6.05;;;13.10;99.90;;;;;;5071165;28;20726;-75
2022/10/19 06:57:25;;;;;;;9.38;6.18;;;13.10;99.90;;;;;;5072807;28;20752;-74
2022/10/19 07:00:15;;;;;;;13.70;6.43;;;13.20;99.90;;;;;;5059336;28;20314;-74
2022/10/19 07:03:04;;;;;;;13.13;6.03;;;13.10;99.90;;;;;;5063043;28;20240;-74
2022/10/19 07:05:54;;;;;;;11.95;6.32;;;13.10;99.90;;;;;;5083448;28;20235;-75
2022/10/19 07:08:43;;;;;;;10.73;6.55;;;13.20;99.90;;;;;;5062482;28;20537;-76
2022/10/19 07:11:33;;;;;;;12.35;6.47;;;13.20;99.90;;;;;;5075812;28;20226;-78
2022/10/19 07:14:23;;;;;;;10.82;6.10;;;13.20;99.90;;;;;;5071114;28;20742;-77
2022/10/19 07:17:12;;;;;;;12.15;5.95;;;13.20;99.90;;;;;;5059327;28;20285;-77
2022/10/19 07:20:01;;;;;;;8.75;5.97;;;13.20;99.90;;;;;;5079001;28;20238;-77
2022/10/19 07:22:49;;;;;;;12.18;5.68;;;13.20;99.90;;;;;;5067235;28;20663;-76
2022/10/19 07:25:39;;;;;;;7.88;5.18;;;13.30;99.90;;;;;;5060729;28;20291;-74
2022/10/19 07:28:30;;;;;;;12.10;5.28;;;13.20;99.90;;;;;;5067233;28;20227;-76
2022/10/19 07:31:20;;;;;;;12.45;5.00;;;13.10;99.90;;;;;;5076780;28;20220;-74
2022/10/19 07:34:12;;;;;;;8.23;5.18;;;13.20;99.90;;;;;;5065241;28;20246;-76
2022/10/19 07:37:01;;;;;;;8.68;4.25;;;13.40;99.90;;;;;;5062094;28;20227;-76
2022/10/19 07:39:50;;;;;;;6.72;3.85;;;13.40;99.90;;;;;;5056160;28;20894;-75
2022/10/19 07:42:39;;;;;;;9.05;4.32;;;13.50;99.90;;;;;;5078221;28;20328;-77
2022/10/19 07:45:29;;;;;;;9.02;4.35;;;13.50;99.90;;;;;;5060023;28;20241;-77
2022/10/19 07:48:18;;;;;;;6.03;4.15;;;13.50;99.90;;;;;;5076405;28;20234;-74
2022/10/19 07:51:08;;;;;;;7.75;3.85;;;13.50;99.90;;;;;;5061714;28;20238;-75
2022/10/19 07:53:58;;;;;;;7.10;3.78;;;13.70;99.90;;;;;;5079750;28;20212;-76
2022/10/19 07:56:47;;;;;;;6.00;3.80;;;13.70;99.90;;;;;;5072989;28;21507;-77
2022/10/19 07:59:36;;;;;;;5.97;3.72;;;13.70;99.90;;;;;;5076664;28;20228;-76
2022/10/19 08:02:26;;;;;;;10.23;3.97;;;13.70;99.90;;;;;;5068892;28;20227;-78
2022/10/19 08:05:33;;;;;;;6.72;3.80;;;13.70;99.90;;;;;;5072151;28;21071;-75
2022/10/19 08:08:22;;;;;;;8.13;4.20;;;13.70;99.90;;;;;;5075588;28;20219;-74
2022/10/19 08:11:13;;;;;;;10.63;4.22;;;13.70;99.90;;;;;;5057303;28;20265;-78
2022/10/19 08:14:02;;;;;;;10.57;4.93;;;13.80;99.90;;;;;;5075785;28;20219;-77
2022/10/19 08:16:51;;;;;;;6.13;4.32;;;14.00;99.90;;;;;;5071386;28;20226;-74
2022/10/19 08:19:42;;;;;;;8.70;4.32;;;14.10;99.90;;;;;;5068386;28;20223;-75
2022/10/19 08:22:31;;;;;;;9.52;4.63;;;13.90;99.90;;;;;;5055284;28;20220;-73
2022/10/19 08:25:20;;;;;;;7.75;4.68;;;13.90;99.90;;;;;;5067831;28;20235;-75
2022/10/19 08:28:09;;;;;;;10.23;5.13;;;13.80;99.90;;;;;;5060074;28;20232;-75
2022/10/19 08:31:51;;;;;;;6.40;4.60;;;14.80;99.90;;;;;;5120763;27;20661;-76
2022/10/19 08:34:40;;;;;;;8.52;4.68;;;13.70;99.90;;;;;;5097266;28;20271;-79
2022/10/19 08:37:29;;;;;;;8.52;5.15;;;13.60;99.90;;;;;;5097681;28;20222;-75
2022/10/19 08:40:32;;;;;;;9.02;5.20;;;13.40;99.90;;;;;;5095959;28;20226;-75
2022/10/19 08:43:31;;;;;;;8.43;5.47;;;13.50;99.90;;;;;;5112444;27;20237;-74
2022/10/19 08:46:25;;;;;;;7.57;5.75;;;13.50;99.90;;;;;;5094605;28;20214;-75
2022/10/19 08:49:19;;;;;;;7.03;5.05;;;13.40;99.90;;;;;;5099952;28;20229;-76
2022/10/19 08:52:13;;;;;;;9.07;5.85;;;13.50;99.90;;;;;;5093255;28;20222;-76
2022/10/19 08:55:10;;;;;;;11.85;5.70;;;13.40;99.90;;;;;;5095508;28;20218;-77
2022/10/19 08:58:20;;;;;;;8.10;5.53;;;13.40;99.90;;;;;;5096671;28;20230;-77
2022/10/19 09:01:15;;;;;;;8.23;5.78;;;13.50;99.90;;;;;;5082122;28;20267;-78
2022/10/19 09:04:09;;;;;;;7.75;5.35;;;13.40;99.90;;;;;;5083611;28;21144;-78
2022/10/19 09:07:20;;;;;;;7.95;5.13;;;13.50;99.90;;;;;;5080997;28;20875;-77
2022/10/19 09:10:18;;;;;;;9.27;4.90;;;13.40;99.90;;;;;;5080720;28;20215;-77
2022/10/19 09:13:16;;;;;;;9.55;5.32;;;13.40;99.90;;;;;;5094300;28;20267;-76
2022/10/19 09:16:06;;;;;;;8.57;5.38;;;13.50;99.90;;;;;;5077089;28;20234;-77
2022/10/19 09:18:55;;;;;;;8.77;5.15;;;13.40;99.90;;;;;;5096214;28;20223;-78
2022/10/19 09:21:50;;;;;;;6.30;4.60;;;13.40;99.90;;;;;;5076195;28;20276;-79
2022/10/19 09:24:45;;;;;;;8.43;4.68;;;13.30;99.90;;;;;;5097608;28;20974;-79
2022/10/19 09:27:38;;;;;;;6.63;4.13;;;13.50;99.90;;;;;;5103937;28;20565;-81
2022/10/19 09:30:28;;;;;;;7.07;4.07;;;13.60;99.90;;;;;;5096349;28;20219;-80
2022/10/19 09:33:30;;;;;;;5.95;3.72;;;13.70;99.90;;;;;;5082244;28;20689;-81
2022/10/19 09:36:19;;;;;;;9.20;4.25;;;13.70;99.90;;;;;;5084418;28;20225;-80
2022/10/19 09:39:15;;;;;;;8.75;3.50;;;13.80;99.90;;;;;;5095067;28;20224;-80
2022/10/19 09:42:11;;;;;;;9.07;3.75;;;13.90;99.90;;;;;;5093606;28;20237;-80
2022/10/19 09:45:02;;;;;;;6.88;3.22;;;13.90;99.90;;;;;;5084309;28;20226;-79
2022/10/19 09:47:50;;;;;;;8.70;3.53;;;14.00;99.90;;;;;;5074069;28;20219;-77
2022/10/19 09:50:43;;;;;;;4.43;3.22;;;14.00;99.90;;;;;;5073578;28;20250;-76
2022/10/19 09:53:32;;;;;;;6.88;3.60;;;13.90;99.90;;;;;;5062491;28;20231;-79
2022/10/19 09:56:23;;;;;;;4.15;3.50;;;13.80;99.90;;;;;;5078909;28;20227;-77
2022/10/19 09:59:22;;;;;;;4.97;3.38;;;14.10;99.90;;;;;;5081581;28;20551;-77
2022/10/19 10:02:18;;;;;;;4.28;3.00;;;14.40;99.90;;;;;;5068989;28;20337;-76
2022/10/19 10:05:11;;;;;;;6.47;3.28;;;;;;;;;;5080003;28;20220;-75
2022/10/19 10:08:00;;;;;;;5.22;3.17;;;14.70;99.90;;;;;;5089717;28;20725;-75
2022/10/19 10:10:56;;;;;;;2.70;1.80;;;14.50;99.90;;;;;;5070019;28;20228;-76
2022/10/19 10:13:49;;;;;;;1.60;1.20;;;13.40;99.90;;;;;;5074943;28;20231;-75
2022/10/19 10:16:40;;;;;;;4.43;1.40;;;13.10;99.90;;;;;;5096473;28;20563;-77
2022/10/19 10:19:30;;;;;;;1.02;0.90;;;13.10;99.90;;;;;;5079046;28;20234;-77
2022/10/19 10:22:26;;;;;;;1.77;0.90;;;12.90;99.90;;;;;;5098208;28;20225;-75
2022/10/19 10:25:18;;;;;;;2.95;0.93;;;13.20;99.90;;;;;;5093268;28;20224;-75
2022/10/19 10:28:19;;;;;;;2.65;1.10;;;13.10;99.90;;;;;;5081762;28;20223;-77
2022/10/19 10:31:09;;;;;;;3.08;1.02;;;13.00;99.90;;;;;;5095513;28;20215;-77
2022/10/19 10:34:02;;;;;;;2.78;0.80;;;13.20;99.90;;;;;;5090767;28;20230;-77
2022/10/19 10:37:18;;;;;;;2.60;1.08;;;13.30;99.90;;;;;;5078119;28;20219;-77
2022/10/19 10:40:20;;;;;;;4.25;1.00;;;13.50;99.90;;;;;;5098555;27;20231;-78
2022/10/19 10:43:17;;;;;;;4.00;1.25;;;13.50;99.90;;;;;;5087214;28;20218;-76
2022/10/19 10:46:08;;;;;;;1.30;1.10;;;13.50;99.90;;;;;;5102101;27;20935;-78
2022/10/19 10:49:01;;;;;;;5.38;1.33;;;13.70;99.90;;;;;;5082320;27;20228;-77
2022/10/19 10:51:54;;;;;;;2.00;1.08;;;13.90;99.90;;;;;;5081324;28;20223;-76
2022/10/19 10:54:58;;;;;;;1.83;1.30;;;13.80;99.90;;;;;;5072037;28;21357;-79
2022/10/19 10:57:51;;;;;;;2.00;1.20;;;13.80;99.90;;;;;;5080116;28;20562;-77
2022/10/19 11:00:42;;;;;;;3.67;1.38;;;13.90;99.90;;;;;;5091063;28;20680;-77
2022/10/19 11:03:32;;;;;;;2.33;1.30;;;13.90;99.90;;;;;;5096750;28;20228;-76
2022/10/19 11:06:23;;;;;;;2.13;1.27;;;14.00;99.90;;;;;;5079313;28;20215;-76
2022/10/19 11:09:24;;;;;;;2.67;1.30;;;13.90;99.90;;;;;;5089373;28;20265;-77
2022/10/19 11:12:16;;;;;;;2.25;0.90;;;13.70;99.90;;;;;;5082384;28;20263;-74
2022/10/19 11:15:15;;;;;;;2.38;1.00;;;13.80;99.90;;;;;;5068077;28;20961;-76
2022/10/19 11:18:14;;;;;;;2.72;1.13;;;13.80;99.90;;;;;;5079843;28;20427;-76
2022/10/19 11:21:09;;;;;;;8.20;1.20;;;13.80;99.90;;;;;;5084805;28;20219;-79
2022/10/19 11:24:11;;;;;;;3.55;1.27;;;14.00;99.90;;;;;;5082282;28;20226;-76
2022/10/19 11:27:13;;;;;;;2.45;1.13;;;13.90;99.90;;;;;;5074480;28;20207;-75
2022/10/19 11:30:09;;;;;;;7.28;1.30;;;14.00;99.90;;;;;;5080079;28;20230;-77
2022/10/19 11:33:04;;;;;;;3.03;1.20;;;13.70;99.90;;;;;;5065537;28;20215;-79
2022/10/19 11:35:56;;;;;;;2.42;1.35;;;13.60;99.90;;;;;;5068289;28;20605;-77
2022/10/19 11:38:55;;;;;;;2.53;1.38;;;13.70;99.90;;;;;;5081098;28;20223;-77
2022/10/19 11:41:50;;;;;;;4.47;1.40;;;13.60;99.90;;;;;;5079478;28;21273;-76
2022/10/19 11:44:51;;;;;;;5.97;1.40;;;13.70;99.90;;;;;;5073553;28;20264;-76
2022/10/19 11:47:55;;;;;;;4.55;1.85;;;13.50;99.90;;;;;;5073042;28;20224;-76
2022/10/19 11:50:49;;;;;;;6.53;2.00;;;13.70;99.90;;;;;;5076150;28;20226;-76
2022/10/19 11:53:57;;;;;;;4.22;1.00;;;13.80;99.90;;;;;;5075294;28;20287;-77
2022/10/19 11:56:55;;;;;;;3.67;1.48;;;13.90;99.90;;;;;;5074486;28;20768;-77
2022/10/19 12:00:06;;;;;;;6.63;1.20;;;14.00;99.90;;;;;;5060431;28;20512;-76
2022/10/19 12:03:33;;;;;;;3.03;1.10;;;14.10;99.90;;;;;;5088363;28;20226;-79
2022/10/19 12:06:27;;;;;;;2.45;1.05;;;14.00;99.90;;;;;;5092281;27;20703;-78
2022/10/19 12:09:27;;;;;;;5.72;1.08;;;14.10;99.90;;;;;;5094318;27;20234;-78
2022/10/19 12:12:26;;;;;;;3.08;1.20;;;14.00;99.90;;;;;;5095084;27;20231;-78
2022/10/19 12:15:23;;;;;;;2.13;0.90;;;13.80;99.90;;;;;;5082628;27;20214;-79
2022/10/19 12:18:17;;;;;;;2.25;1.00;;;13.60;99.90;;;;;;5098753;28;20219;-82
2022/10/19 12:21:11;;;;;;;4.20;1.10;;;13.60;99.90;;;;;;5100750;27;20234;-77
2022/10/19 12:24:03;;;;;;;10.13;1.45;;;13.70;99.90;;;;;;5106652;28;20221;-80
2022/10/19 12:26:54;;;;;;;2.90;0.93;;;13.90;99.90;;;;;;5091842;28;20714;-78
2022/10/19 12:29:48;;;;;;;2.85;1.13;;;14.10;99.90;;;;;;5086171;28;20723;-78
2022/10/19 12:32:58;;;;;;;2.75;1.00;;;14.20;99.90;;;;;;5078136;28;20219;-81
2022/10/19 12:36:04;;;;;;;4.40;1.05;;;14.10;99.90;;;;;;5089830;28;20223;-82
2022/10/19 12:39:21;;;;;;;3.30;1.05;;;14.10;99.90;;;;;;5063896;28;21749;-82
2022/10/19 12:42:19;;;;;;;1.95;0.95;;;14.00;99.90;;;;;;5089403;28;20222;-83
2022/10/19 12:45:24;;;;;;;3.95;1.00;;;14.00;99.90;;;;;;5092302;28;20219;-80
2022/10/19 12:48:21;;;;;;;3.03;1.00;;;13.90;99.90;;;;;;5100257;28;20226;-80
2022/10/19 12:51:13;;;;;;;3.67;1.30;;;13.80;99.90;;;;;;5064150;28;20590;-79
2022/10/19 12:54:09;;;;;;;2.65;0.98;;;13.80;99.90;;;;;;5078227;28;20306;-79
2022/10/19 12:57:01;;;;;;;7.45;1.08;;;13.80;99.90;;;;;;5083157;28;20710;-77
2022/10/19 13:00:18;;;;;;;1.83;0.80;;;13.70;99.90;;;;;;5085504;28;20232;-79
2022/10/19 13:03:20;;;;;;;1.75;0.80;;;13.50;99.90;;;;;;5061370;28;20232;-80
2022/10/19 13:06:19;;;;;;;1.58;0.90;;;13.60;99.90;;;;;;5059831;28;20219;-80
2022/10/19 13:09:09;;;;;;;3.60;1.10;;;13.60;99.90;;;;;;5077972;28;20955;-79
2022/10/19 13:12:43;;;;;;;1.65;0.80;;;13.50;99.90;;;;;;5073475;28;21300;-80
2022/10/19 13:15:59;;;;;;;2.05;0.80;;;13.50;99.90;;;;;;5043645;28;20226;-81
2022/10/19 13:19:19;;;;;;;3.70;0.75;;;13.40;99.90;;;;;;5094625;27;20227;-80
2022/10/19 13:22:27;;;;;;;2.42;0.80;;;13.40;99.90;;;;;;5076732;28;20268;-79
2022/10/19 13:25:25;;;;;;;1.23;0.77;;;13.50;99.90;;;;;;5071452;28;20219;-78
2022/10/19 13:28:36;;;;;;;3.15;0.90;;;13.60;99.90;;;;;;5066282;28;23327;-79
2022/10/19 13:31:27;;;;;;;4.47;1.33;;;13.60;99.90;;;;;;5075144;28;20702;-79
2022/10/19 13:34:18;;;;;;;2.22;0.80;;;13.60;99.90;;;;;;5076054;28;20298;-79
2022/10/19 13:37:13;;;;;;;2.10;1.08;;;13.60;99.90;;;;;;5080184;28;21052;-80
2022/10/19 13:40:14;;;;;;;1.45;0.70;;;13.70;99.90;;;;;;5088756;28;20736;-77
2022/10/19 13:43:04;;;;;;;1.25;0.80;;;13.80;99.90;;;;;;5101835;27;20229;-77
2022/10/19 13:45:55;;;;;;;2.65;0.80;;;13.80;99.90;;;;;;5083099;28;20215;-81
2022/10/19 13:49:08;;;;;;;4.10;1.00;;;13.40;99.90;;;;;;5078056;28;20228;-81
2022/10/19 13:52:10;;;;;;;1.88;0.80;;;13.10;99.90;;;;;;5096801;28;22441;-81
2022/10/19 13:55:21;;;;;;;8.48;0.68;;;13.00;99.90;;;;;;5081681;28;20331;-79
2022/10/19 13:58:47;;;;;;;2.33;0.73;;;12.80;99.90;;;;;;5098176;28;20215;-80
2022/10/19 14:01:51;;;;;;;1.77;0.77;;;12.70;99.90;;;;;;5102808;27;20223;-77
2022/10/19 14:04:48;;;;;;;2.58;0.90;;;12.70;99.90;;;;;;5092574;28;20241;-79
2022/10/19 14:07:46;;;;;;;1.80;0.90;;;12.80;99.90;;;;;;5079939;28;20591;-80
2022/10/19 14:10:36;;;;;;;1.38;1.00;;;12.60;99.90;;;;;;5082980;28;20220;-80
2022/10/19 14:13:45;;;;;;;1.00;0.90;;;12.70;99.90;;;;;;5091491;28;20230;-81
2022/10/19 14:16:35;;;;;;;2.92;1.00;;;12.90;99.90;;;;;;5098203;28;22523;-84
2022/10/19 14:19:27;;;;;;;1.60;1.00;;;12.80;99.90;;;;;;5085577;28;20219;-77
2022/10/19 14:22:23;;;;;;;2.17;1.17;;;12.80;99.90;;;;;;5058162;28;21251;-77
2022/10/19 14:25:20;;;;;;;2.60;1.08;;;12.60;99.90;;;;;;5084881;28;20216;-76
2022/10/19 14:28:09;;;;;;;2.33;1.02;;;12.50;99.90;;;;;;5076346;28;20299;-77
2022/10/19 14:31:00;;;;;;;1.75;0.90;;;12.30;99.90;;;;;;5086338;28;20662;-77
2022/10/19 14:33:53;;;;;;;6.68;1.42;;;12.30;99.90;;;;;;5076724;28;20737;-77
2022/10/19 14:36:46;;;;;;;1.10;1.00;;;12.40;99.90;;;;;;5086022;28;20234;-77
2022/10/19 14:39:35;;;;;;;2.08;1.15;;;12.50;99.90;;;;;;5084643;28;20231;-77
2022/10/19 14:42:34;;;;;;;3.10;1.55;;;12.30;99.90;;;;;;5078700;28;20307;-77
2022/10/19 14:45:25;;;;;;;4.13;1.40;;;12.40;99.90;;;;;;5072038;28;20231;-77
2022/10/19 14:48:18;;;;;;;6.72;1.27;;;12.30;99.90;;;;;;5073529;28;20227;-77
2022/10/19 14:51:14;;;;;;;5.10;1.30;;;12.50;99.90;;;;;;5059953;28;20231;-76
2022/10/19 14:54:08;;;;;;;3.65;1.95;;;12.40;99.90;;;;;;5079037;28;20226;-77